Terminal Aerodrome Forecast
Issued by NWS

Home | Current Version | Previous Version | Text Only | Print | Product List | Glossary On
Versions: 1 2 3 4 5 6 7 8 9 10 11 12 13 14 15
009
FTUS43 KMQT 250210 AAA
TAFSAW
TAF AMD
KSAW 250210Z 2502/2524 01014G24KT 3SM -SN BLSN OVC015
      TEMPO 2502/2506 1 1/2SM -SN BLSN OVC008
     FM250600 36015G25KT 3/4SM -SN BLSN OVC008
     FM251000 35015G24KT 1SM -SN BLSN OVC008
     FM251600 33016G23KT 3SM -SN BLSN OVC025
     FM251800 32015G22KT P6SM VCSH OVC035
     FM252300 30010KT P6SM BKN035=

USA.gov is the U.S. government's official web portal to all federal, state and local government web resources and services.